sensor_id;sensor_type;location;lat;lon;timestamp;pressure;altitude;pressure_sealevel;temperature;humidity
34297;BME280;20564;42.902;25.336;2023-04-23T00:01:19;97237.19;;;4.50;100.00
34297;BME280;20564;42.902;25.336;2023-04-23T00:03:48;97235.72;;;4.46;100.00
34297;BME280;20564;42.902;25.336;2023-04-23T00:06:16;97237.06;;;4.39;100.00
34297;BME280;20564;42.902;25.336;2023-04-23T00:08:43;97232.69;;;4.40;100.00
34297;BME280;20564;42.902;25.336;2023-04-23T00:11:10;97240.19;;;4.44;100.00
34297;BME280;20564;42.902;25.336;2023-04-23T00:13:38;97232.38;;;4.44;100.00
34297;BME280;20564;42.902;25.336;2023-04-23T00:16:05;97229.25;;;4.39;100.00
34297;BME280;20564;42.902;25.336;2023-04-23T00:18:32;97235.19;;;4.41;100.00
34297;BME280;20564;42.902;25.336;2023-04-23T00:20:59;97233.72;;;4.37;100.00
34297;BME280;20564;42.902;25.336;2023-04-23T00:23:27;97233.72;;;4.37;100.00
34297;BME280;20564;42.902;25.336;2023-04-23T00:25:54;97236.50;;;4.34;100.00
34297;BME280;20564;42.902;25.336;2023-04-23T00:28:21;97235.25;;;4.27;100.00
34297;BME280;20564;42.902;25.336;2023-04-23T00:30:48;97233.13;;;4.19;100.00
34297;BME280;20564;42.902;25.336;2023-04-23T00:33:15;97232.69;;;4.13;100.00
34297;BME280;20564;42.902;25.336;2023-04-23T00:35:42;97235.50;;;4.09;100.00
34297;BME280;20564;42.902;25.336;2023-04-23T00:38:08;97238.66;;;4.15;100.00
34297;BME280;20564;42.902;25.336;2023-04-23T00:40:35;97233.97;;;4.20;100.00
34297;BME280;20564;42.902;25.336;2023-04-23T00:43:03;97243.56;;;4.19;100.00
34297;BME280;20564;42.902;25.336;2023-04-23T00:45:30;97237.72;;;4.16;100.00
34297;BME280;20564;42.902;25.336;2023-04-23T00:47:57;97241.25;;;4.15;100.00
34297;BME280;20564;42.902;25.336;2023-04-23T00:50:24;97232.88;;;4.09;100.00
34297;BME280;20564;42.902;25.336;2023-04-23T00:52:51;97240.81;;;4.08;100.00
34297;BME280;20564;42.902;25.336;2023-04-23T00:55:18;97243.59;;;4.05;100.00
34297;BME280;20564;42.902;25.336;2023-04-23T00:57:47;97242.78;;;4.04;100.00
34297;BME280;20564;42.902;25.336;2023-04-23T01:00:14;97245.56;;;4.01;100.00
34297;BME280;20564;42.902;25.336;2023-04-23T01:02:43;97251.34;;;4.06;100.00
34297;BME280;20564;42.902;25.336;2023-04-23T01:05:10;97249.66;;;4.05;100.00
34297;BME280;20564;42.902;25.336;2023-04-23T01:07:43;97243.84;;;3.87;100.00
34297;BME280;20564;42.902;25.336;2023-04-23T01:10:10;97247.50;;;3.85;100.00
34297;BME280;20564;42.902;25.336;2023-04-23T01:12:37;97241.94;;;3.77;100.00
34297;BME280;20564;42.902;25.336;2023-04-23T01:15:05;97242.13;;;3.74;100.00
34297;BME280;20564;42.902;25.336;2023-04-23T01:17:33;97247.34;;;3.74;100.00
34297;BME280;20564;42.902;25.336;2023-04-23T01:20:00;97235.88;;;3.76;100.00
34297;BME280;20564;42.902;25.336;2023-04-23T01:22:26;97241.31;;;3.73;100.00
34297;BME280;20564;42.902;25.336;2023-04-23T01:24:53;97243.78;;;3.75;100.00
34297;BME280;20564;42.902;25.336;2023-04-23T01:27:20;97242.66;;;3.79;100.00
34297;BME280;20564;42.902;25.336;2023-04-23T01:29:50;97234.84;;;3.79;100.00
34297;BME280;20564;42.902;25.336;2023-04-23T01:32:18;97235.59;;;3.81;100.00
34297;BME280;20564;42.902;25.336;2023-04-23T01:34:46;97235.13;;;3.89;100.00
34297;BME280;20564;42.902;25.336;2023-04-23T01:37:14;97239.03;;;3.81;100.00
34297;BME280;20564;42.902;25.336;2023-04-23T01:39:42;97231.09;;;3.70;100.00
34297;BME280;20564;42.902;25.336;2023-04-23T01:42:08;97238.59;;;3.75;100.00
34297;BME280;20564;42.902;25.336;2023-04-23T01:44:36;97233.56;;;3.72;100.00
34297;BME280;20564;42.902;25.336;2023-04-23T01:47:04;97237.13;;;3.71;100.00
34297;BME280;20564;42.902;25.336;2023-04-23T01:49:32;97233.94;;;3.66;100.00
34297;BME280;20564;42.902;25.336;2023-04-23T01:51:59;97236.38;;;3.69;100.00
34297;BME280;20564;42.902;25.336;2023-04-23T01:54:26;97244.59;;;3.62;100.00
34297;BME280;20564;42.902;25.336;2023-04-23T01:56:53;97240.28;;;3.61;100.00
34297;BME280;20564;42.902;25.336;2023-04-23T01:59:21;97245.72;;;3.58;100.00
34297;BME280;20564;42.902;25.336;2023-04-23T02:01:49;97238.09;;;3.55;100.00
34297;BME280;20564;42.902;25.336;2023-04-23T02:04:17;97235.75;;;3.51;100.00
34297;BME280;20564;42.902;25.336;2023-04-23T02:06:45;97243.47;;;3.52;100.00
34297;BME280;20564;42.902;25.336;2023-04-23T02:09:13;97238.47;;;3.49;100.00
34297;BME280;20564;42.902;25.336;2023-04-23T02:11:40;97240.13;;;3.50;100.00
34297;BME280;20564;42.902;25.336;2023-04-23T02:14:08;97238.63;;;3.46;100.00
34297;BME280;20564;42.902;25.336;2023-04-23T02:16:35;97250.06;;;3.44;100.00
34297;BME280;20564;42.902;25.336;2023-04-23T02:19:02;97242.47;;;3.41;100.00
34297;BME280;20564;42.902;25.336;2023-04-23T02:21:30;97252.97;;;3.39;100.00
34297;BME280;20564;42.902;25.336;2023-04-23T02:23:57;97248.69;;;3.38;100.00
34297;BME280;20564;42.902;25.336;2023-04-23T02:26:24;97243.59;;;3.36;100.00
34297;BME280;20564;42.902;25.336;2023-04-23T02:28:51;97251.47;;;3.35;100.00
34297;BME280;20564;42.902;25.336;2023-04-23T02:31:18;97252.69;;;3.29;100.00
34297;BME280;20564;42.902;25.336;2023-04-23T02:33:47;97252.69;;;3.29;100.00
34297;BME280;20564;42.902;25.336;2023-04-23T02:36:13;97257.69;;;3.32;100.00
34297;BME280;20564;42.902;25.336;2023-04-23T02:38:41;97253.34;;;3.33;100.00
34297;BME280;20564;42.902;25.336;2023-04-23T02:41:10;97251.84;;;3.29;100.00
34297;BME280;20564;42.902;25.336;2023-04-23T02:43:37;97253.72;;;3.27;100.00
34297;BME280;20564;42.902;25.336;2023-04-23T02:46:05;97254.56;;;3.27;100.00
34297;BME280;20564;42.902;25.336;2023-04-23T02:48:37;97253.72;;;3.27;100.00
34297;BME280;20564;42.902;25.336;2023-04-23T02:51:05;97246.84;;;3.26;100.00
34297;BME280;20564;42.902;25.336;2023-04-23T02:53:32;97250.47;;;3.23;100.00
34297;BME280;20564;42.902;25.336;2023-04-23T02:55:59;97249.81;;;3.20;100.00
34297;BME280;20564;42.902;25.336;2023-04-23T02:58:27;97256.13;;;3.16;100.00
34297;BME280;20564;42.902;25.336;2023-04-23T03:00:54;97256.13;;;3.16;100.00
34297;BME280;20564;42.902;25.336;2023-04-23T03:03:21;97254.09;;;3.21;100.00
34297;BME280;20564;42.902;25.336;2023-04-23T03:05:52;97256.13;;;3.16;100.00
34297;BME280;20564;42.902;25.336;2023-04-23T03:08:20;97254.72;;;3.10;100.00
34297;BME280;20564;42.902;25.336;2023-04-23T03:10:47;97258.16;;;3.10;100.00
34297;BME280;20564;42.902;25.336;2023-04-23T03:13:14;97260.97;;;3.07;100.00
34297;BME280;20564;42.902;25.336;2023-04-23T03:15:42;97258.16;;;3.10;100.00
34297;BME280;20564;42.902;25.336;2023-04-23T03:18:08;97256.50;;;3.09;100.00
34297;BME280;20564;42.902;25.336;2023-04-23T03:20:35;97265.22;;;3.08;100.00
34297;BME280;20564;42.902;25.336;2023-04-23T03:23:03;97264.59;;;3.05;100.00
34297;BME280;20564;42.902;25.336;2023-04-23T03:25:32;97266.91;;;3.09;100.00
34297;BME280;20564;42.902;25.336;2023-04-23T03:27:59;97265.97;;;3.10;100.00
34297;BME280;20564;42.902;25.336;2023-04-23T03:30:28;97276.75;;;3.19;100.00
34297;BME280;20564;42.902;25.336;2023-04-23T03:32:55;97266.91;;;3.09;100.00
34297;BME280;20564;42.902;25.336;2023-04-23T03:35:24;97276.47;;;3.09;100.00
34297;BME280;20564;42.902;25.336;2023-04-23T03:37:51;97272.28;;;3.06;100.00
34297;BME280;20564;42.902;25.336;2023-04-23T03:40:19;97272.47;;;3.03;100.00
34297;BME280;20564;42.902;25.336;2023-04-23T03:42:46;97278.53;;;3.04;100.00
34297;BME280;20564;42.902;25.336;2023-04-23T03:45:16;97268.28;;;3.01;100.00
34297;BME280;20564;42.902;25.336;2023-04-23T03:47:43;97271.56;;;3.04;100.00
34297;BME280;20564;42.902;25.336;2023-04-23T03:50:10;97274.97;;;3.05;100.00
34297;BME280;20564;42.902;25.336;2023-04-23T03:52:40;97264.59;;;3.05;100.00
34297;BME280;20564;42.902;25.336;2023-04-23T03:55:07;97282.03;;;3.03;100.00
34297;BME280;20564;42.902;25.336;2023-04-23T03:57:35;97272.84;;;2.97;100.00
34297;BME280;20564;42.902;25.336;2023-04-23T04:00:04;97281.94;;;3.04;100.00
34297;BME280;20564;42.902;25.336;2023-04-23T04:02:33;97289.00;;;3.02;100.00
34297;BME280;20564;42.902;25.336;2023-04-23T04:05:00;97284.72;;;3.01;100.00
34297;BME280;20564;42.902;25.336;2023-04-23T04:07:27;97285.47;;;3.03;100.00
34297;BME280;20564;42.902;25.336;2023-04-23T04:09:55;97283.16;;;3.13;100.00
34297;BME280;20564;42.902;25.336;2023-04-23T04:12:21;97287.53;;;3.12;100.00
34297;BME280;20564;42.902;25.336;2023-04-23T04:14:48;97286.59;;;3.13;100.00
34297;BME280;20564;42.902;25.336;2023-04-23T04:17:15;97283.97;;;3.13;100.00
34297;BME280;20564;42.902;25.336;2023-04-23T04:19:42;97287.81;;;3.22;100.00
34297;BME280;20564;42.902;25.336;2023-04-23T04:22:11;97287.44;;;3.28;100.00
34297;BME280;20564;42.902;25.336;2023-04-23T04:24:38;97290.97;;;3.42;100.00
34297;BME280;20564;42.902;25.336;2023-04-23T04:27:08;97284.00;;;3.42;100.00
34297;BME280;20564;42.902;25.336;2023-04-23T04:29:34;97289.66;;;3.49;100.00
34297;BME280;20564;42.902;25.336;2023-04-23T04:32:01;97290.59;;;3.62;100.00
34297;BME280;20564;42.902;25.336;2023-04-23T04:34:30;97293.38;;;3.73;100.00
34297;BME280;20564;42.902;25.336;2023-04-23T04:36:57;97299.28;;;3.90;100.00
34297;BME280;20564;42.902;25.336;2023-04-23T04:39:24;97295.81;;;4.03;100.00
34297;BME280;20564;42.902;25.336;2023-04-23T04:41:55;97294.28;;;4.14;100.00
34297;BME280;20564;42.902;25.336;2023-04-23T04:44:22;97294.63;;;4.22;100.00
34297;BME280;20564;42.902;25.336;2023-04-23T04:46:50;97292.56;;;4.27;100.00
34297;BME280;20564;42.902;25.336;2023-04-23T04:49:18;97302.78;;;4.30;100.00
34297;BME280;20564;42.902;25.336;2023-04-23T04:51:47;97302.47;;;4.34;100.00
34297;BME280;20564;42.902;25.336;2023-04-23T04:54:14;97299.50;;;4.41;100.00
34297;BME280;20564;42.902;25.336;2023-04-23T04:56:41;97309.56;;;4.59;100.00
34297;BME280;20564;42.902;25.336;2023-04-23T04:59:07;97309.41;;;4.88;100.00
34297;BME280;20564;42.902;25.336;2023-04-23T05:01:34;97304.84;;;5.17;100.00
34297;BME280;20564;42.902;25.336;2023-04-23T05:04:02;97301.59;;;5.52;100.00
34297;BME280;20564;42.902;25.336;2023-04-23T05:06:30;97307.91;;;5.86;100.00
34297;BME280;20564;42.902;25.336;2023-04-23T05:08:58;97295.31;;;6.17;100.00
34297;BME280;20564;42.902;25.336;2023-04-23T05:11:24;97301.66;;;6.49;100.00
34297;BME280;20564;42.902;25.336;2023-04-23T05:13:51;97296.06;;;6.78;100.00
34297;BME280;20564;42.902;25.336;2023-04-23T05:16:18;97298.75;;;7.12;100.00
34297;BME280;20564;42.902;25.336;2023-04-23T05:18:45;97296.06;;;7.36;100.00
34297;BME280;20564;42.902;25.336;2023-04-23T05:21:13;97292.63;;;7.69;100.00
34297;BME280;20564;42.902;25.336;2023-04-23T05:23:40;97293.78;;;7.98;100.00
34297;BME280;20564;42.902;25.336;2023-04-23T05:26:07;97290.50;;;8.29;100.00
34297;BME280;20564;42.902;25.336;2023-04-23T05:28:35;97285.56;;;8.58;100.00
34297;BME280;20564;42.902;25.336;2023-04-23T05:31:02;97289.72;;;8.92;100.00
34297;BME280;20564;42.902;25.336;2023-04-23T05:33:28;97294.28;;;9.21;98.33
34297;BME280;20564;42.902;25.336;2023-04-23T05:36:04;97282.16;;;9.51;97.40
34297;BME280;20564;42.902;25.336;2023-04-23T05:38:31;97287.94;;;9.75;96.46
34297;BME280;20564;42.902;25.336;2023-04-23T05:40:59;97285.53;;;10.03;94.70
34297;BME280;20564;42.902;25.336;2023-04-23T05:43:25;97283.69;;;10.34;94.18
34297;BME280;20564;42.902;25.336;2023-04-23T05:45:52;97283.97;;;10.60;91.80
34297;BME280;20564;42.902;25.336;2023-04-23T05:48:19;97283.72;;;10.82;92.26
34297;BME280;20564;42.902;25.336;2023-04-23T05:50:46;97288.69;;;11.05;89.27
34297;BME280;20564;42.902;25.336;2023-04-23T05:53:14;97289.47;;;11.25;88.74
34297;BME280;20564;42.902;25.336;2023-04-23T05:55:43;97272.50;;;11.47;87.84
34297;BME280;20564;42.902;25.336;2023-04-23T05:58:10;97284.38;;;11.70;86.05
34297;BME280;20564;42.902;25.336;2023-04-23T06:00:37;97277.06;;;11.92;84.88
34297;BME280;20564;42.902;25.336;2023-04-23T06:03:06;97278.34;;;12.15;83.73
34297;BME280;20564;42.902;25.336;2023-04-23T06:05:33;97265.84;;;12.35;81.66
34297;BME280;20564;42.902;25.336;2023-04-23T06:08:00;97270.06;;;12.46;82.10
34297;BME280;20564;42.902;25.336;2023-04-23T06:10:26;97277.47;;;12.60;79.40
34297;BME280;20564;42.902;25.336;2023-04-23T06:12:54;97282.38;;;12.91;79.13
34297;BME280;20564;42.902;25.336;2023-04-23T06:15:21;97273.22;;;13.03;79.32
34297;BME280;20564;42.902;25.336;2023-04-23T06:17:52;97276.22;;;13.26;78.85
34297;BME280;20564;42.902;25.336;2023-04-23T06:20:21;97270.78;;;13.54;77.10
34297;BME280;20564;42.902;25.336;2023-04-23T06:22:47;97270.44;;;13.83;75.70
34297;BME280;20564;42.902;25.336;2023-04-23T06:25:14;97270.81;;;13.96;75.06
34297;BME280;20564;42.902;25.336;2023-04-23T06:27:41;97263.59;;;14.14;74.77
34297;BME280;20564;42.902;25.336;2023-04-23T06:30:08;97261.50;;;14.26;74.33
34297;BME280;20564;42.902;25.336;2023-04-23T06:32:36;97264.38;;;14.49;73.12
34297;BME280;20564;42.902;25.336;2023-04-23T06:35:04;97258.16;;;14.66;72.50
34297;BME280;20564;42.902;25.336;2023-04-23T06:37:32;97265.44;;;14.97;72.53
34297;BME280;20564;42.902;25.336;2023-04-23T06:39:59;97256.47;;;15.14;73.10
34297;BME280;20564;42.902;25.336;2023-04-23T06:42:26;97253.78;;;15.47;71.66
34297;BME280;20564;42.902;25.336;2023-04-23T06:44:53;97240.44;;;15.80;69.01
34297;BME280;20564;42.902;25.336;2023-04-23T06:47:21;97243.94;;;16.11;66.41
34297;BME280;20564;42.902;25.336;2023-04-23T06:49:47;97244.34;;;16.31;64.26
34297;BME280;20564;42.902;25.336;2023-04-23T06:52:14;97241.63;;;16.39;64.09
34297;BME280;20564;42.902;25.336;2023-04-23T06:54:41;97236.69;;;16.59;63.94
34297;BME280;20564;42.902;25.336;2023-04-23T06:57:09;97235.44;;;16.78;63.60
34297;BME280;20564;42.902;25.336;2023-04-23T06:59:36;97234.81;;;16.91;61.85
34297;BME280;20564;42.902;25.336;2023-04-23T07:02:03;97238.25;;;17.15;63.37
34297;BME280;20564;42.902;25.336;2023-04-23T07:04:30;97238.03;;;17.39;61.25
34297;BME280;20564;42.902;25.336;2023-04-23T07:06:57;97244.13;;;17.63;60.79
34297;BME280;20564;42.902;25.336;2023-04-23T07:09:27;97236.16;;;17.77;56.33
34297;BME280;20564;42.902;25.336;2023-04-23T07:11:54;97237.59;;;17.65;57.51
34297;BME280;20564;42.902;25.336;2023-04-23T07:14:21;97240.09;;;17.67;55.24
34297;BME280;20564;42.902;25.336;2023-04-23T07:16:48;97239.31;;;17.73;55.57
34297;BME280;20564;42.902;25.336;2023-04-23T07:19:15;97238.50;;;18.02;55.62
34297;BME280;20564;42.902;25.336;2023-04-23T07:21:41;97233.44;;;18.22;54.30
34297;BME280;20564;42.902;25.336;2023-04-23T07:24:08;97225.47;;;18.43;50.02
34297;BME280;20564;42.902;25.336;2023-04-23T07:26:35;97230.56;;;18.60;49.12
34297;BME280;20564;42.902;25.336;2023-04-23T07:29:05;97237.03;;;18.87;49.70
34297;BME280;20564;42.902;25.336;2023-04-23T07:31:33;97229.19;;;18.85;48.19
34297;BME280;20564;42.902;25.336;2023-04-23T07:34:00;97225.47;;;19.08;48.43
34297;BME280;20564;42.902;25.336;2023-04-23T07:36:28;97221.56;;;19.03;47.15
34297;BME280;20564;42.902;25.336;2023-04-23T07:38:55;97225.38;;;18.94;44.16
34297;BME280;20564;42.902;25.336;2023-04-23T07:41:21;97220.50;;;18.76;45.67
34297;BME280;20564;42.902;25.336;2023-04-23T07:43:48;97214.72;;;18.94;45.76
34297;BME280;20564;42.902;25.336;2023-04-23T07:46:15;97216.22;;;19.03;44.78
34297;BME280;20564;42.902;25.336;2023-04-23T07:48:42;97220.41;;;19.13;44.16
34297;BME280;20564;42.902;25.336;2023-04-23T07:51:09;97208.88;;;19.12;44.55
34297;BME280;20564;42.902;25.336;2023-04-23T07:53:36;97216.34;;;19.17;43.55
34297;BME280;20564;42.902;25.336;2023-04-23T07:56:02;97219.09;;;19.02;43.69
34297;BME280;20564;42.902;25.336;2023-04-23T07:58:31;97217.47;;;18.79;44.23
34297;BME280;20564;42.902;25.336;2023-04-23T08:01:01;97215.31;;;18.53;45.18
34297;BME280;20564;42.902;25.336;2023-04-23T08:03:28;97220.28;;;18.20;45.72
34297;BME280;20564;42.902;25.336;2023-04-23T08:05:55;97220.78;;;17.94;44.57
34297;BME280;20564;42.902;25.336;2023-04-23T08:08:23;97217.13;;;17.66;42.91
34297;BME280;20564;42.902;25.336;2023-04-23T08:10:51;97216.75;;;17.54;45.09
34297;BME280;20564;42.902;25.336;2023-04-23T08:13:18;97217.66;;;17.46;46.48
34297;BME280;20564;42.902;25.336;2023-04-23T08:15:47;97213.06;;;17.40;44.72
34297;BME280;20564;42.902;25.336;2023-04-23T08:18:14;97213.63;;;17.50;45.44
34297;BME280;20564;42.902;25.336;2023-04-23T08:20:41;97209.59;;;17.84;42.84
34297;BME280;20564;42.902;25.336;2023-04-23T08:23:08;97209.00;;;18.18;41.64
34297;BME280;20564;42.902;25.336;2023-04-23T08:25:35;97203.44;;;18.56;41.90
34297;BME280;20564;42.902;25.336;2023-04-23T08:28:01;97195.50;;;18.77;42.13
34297;BME280;20564;42.902;25.336;2023-04-23T08:30:29;97193.56;;;19.21;42.22
34297;BME280;20564;42.902;25.336;2023-04-23T08:32:56;97199.41;;;19.66;41.58
34297;BME280;20564;42.902;25.336;2023-04-23T08:35:23;97192.38;;;19.99;40.62
34297;BME280;20564;42.902;25.336;2023-04-23T08:37:51;97192.38;;;19.99;40.17
34297;BME280;20564;42.902;25.336;2023-04-23T08:40:18;97194.22;;;19.99;40.76
34297;BME280;20564;42.902;25.336;2023-04-23T08:42:57;97188.91;;;20.06;40.70
34297;BME280;20564;42.902;25.336;2023-04-23T08:45:28;97186.13;;;20.27;40.50
34297;BME280;20564;42.902;25.336;2023-04-23T08:47:59;97182.88;;;20.45;39.26
34297;BME280;20564;42.902;25.336;2023-04-23T08:50:29;97178.63;;;20.70;38.55
34297;BME280;20564;42.902;25.336;2023-04-23T08:52:56;97170.78;;;20.76;38.42
34297;BME280;20564;42.902;25.336;2023-04-23T08:55:24;97175.09;;;20.77;38.10
34297;BME280;20564;42.902;25.336;2023-04-23T08:57:51;97180.66;;;20.95;37.58
34297;BME280;20564;42.902;25.336;2023-04-23T09:00:19;97173.03;;;21.05;37.16
34297;BME280;20564;42.902;25.336;2023-04-23T09:02:48;97177.97;;;21.28;36.61
34297;BME280;20564;42.902;25.336;2023-04-23T09:05:16;97171.56;;;21.56;36.20
34297;BME280;20564;42.902;25.336;2023-04-23T09:07:44;97164.31;;;21.70;34.54
34297;BME280;20564;42.902;25.336;2023-04-23T09:10:12;97171.31;;;21.64;33.67
34297;BME280;20564;42.902;25.336;2023-04-23T09:12:43;97170.97;;;21.54;34.18
34297;BME280;20564;42.902;25.336;2023-04-23T09:15:11;97176.53;;;21.46;34.87
34297;BME280;20564;42.902;25.336;2023-04-23T09:17:41;97172.41;;;21.30;35.92
34297;BME280;20564;42.902;25.336;2023-04-23T09:20:10;97167.31;;;20.88;36.17
34297;BME280;20564;42.902;25.336;2023-04-23T09:22:45;97164.53;;;20.35;36.45
34297;BME280;20564;42.902;25.336;2023-04-23T09:25:16;97162.34;;;19.91;37.05
34297;BME280;20564;42.902;25.336;2023-04-23T09:27:44;97163.13;;;19.43;37.43
34297;BME280;20564;42.902;25.336;2023-04-23T09:30:12;97165.47;;;19.25;38.96
34297;BME280;20564;42.902;25.336;2023-04-23T09:32:41;97169.59;;;18.99;40.20
34297;BME280;20564;42.902;25.336;2023-04-23T09:35:11;97165.94;;;18.79;41.89
34297;BME280;20564;42.902;25.336;2023-04-23T09:37:43;97165.31;;;18.55;38.35
34297;BME280;20564;42.902;25.336;2023-04-23T09:40:18;97162.66;;;18.34;41.55
34297;BME280;20564;42.902;25.336;2023-04-23T09:42:50;97165.44;;;18.26;41.40
34297;BME280;20564;42.902;25.336;2023-04-23T09:45:20;97163.78;;;18.25;41.22
34297;BME280;20564;42.902;25.336;2023-04-23T09:47:49;97166.97;;;18.14;42.80
34297;BME280;20564;42.902;25.336;2023-04-23T09:50:18;97158.75;;;18.15;41.86
34297;BME280;20564;42.902;25.336;2023-04-23T09:52:53;97157.56;;;18.18;42.51
34297;BME280;20564;42.902;25.336;2023-04-23T09:55:46;97156.34;;;18.20;40.87
34297;BME280;20564;42.902;25.336;2023-04-23T09:58:14;97156.78;;;18.24;39.70
34297;BME280;20564;42.902;25.336;2023-04-23T10:00:41;97158.06;;;18.28;40.23
34297;BME280;20564;42.902;25.336;2023-04-23T10:03:09;97159.47;;;18.24;40.44
34297;BME280;20564;42.902;25.336;2023-04-23T10:05:42;97160.19;;;18.33;40.69
34297;BME280;20564;42.902;25.336;2023-04-23T10:08:13;97152.63;;;18.36;42.74
34297;BME280;20564;42.902;25.336;2023-04-23T10:10:43;97158.97;;;18.35;41.47
34297;BME280;20564;42.902;25.336;2023-04-23T10:13:14;97160.63;;;18.36;42.48
34297;BME280;20564;42.902;25.336;2023-04-23T10:15:41;97160.34;;;18.31;43.54
34297;BME280;20564;42.902;25.336;2023-04-23T10:18:13;97150.69;;;18.08;47.66
34297;BME280;20564;42.902;25.336;2023-04-23T10:20:41;97156.50;;;17.97;48.21
34297;BME280;20564;42.902;25.336;2023-04-23T10:23:10;97151.56;;;17.94;50.49
34297;BME280;20564;42.902;25.336;2023-04-23T10:25:39;97139.06;;;17.95;49.92
34297;BME280;20564;42.902;25.336;2023-04-23T10:28:08;97131.03;;;17.88;48.70
34297;BME280;20564;42.902;25.336;2023-04-23T10:30:37;97140.75;;;17.96;49.12
34297;BME280;20564;42.902;25.336;2023-04-23T10:33:06;97142.19;;;17.98;47.06
34297;BME280;20564;42.902;25.336;2023-04-23T10:35:48;97136.31;;;18.03;46.25
34297;BME280;20564;42.902;25.336;2023-04-23T10:38:15;97132.06;;;18.08;45.39
34297;BME280;20564;42.902;25.336;2023-04-23T10:40:44;97136.00;;;18.34;46.83
34297;BME280;20564;42.902;25.336;2023-04-23T10:43:12;97135.75;;;18.50;45.00
34297;BME280;20564;42.902;25.336;2023-04-23T10:45:40;97130.91;;;18.82;44.08
34297;BME280;20564;42.902;25.336;2023-04-23T10:48:07;97126.00;;;19.14;41.91
34297;BME280;20564;42.902;25.336;2023-04-23T10:50:35;97125.34;;;19.12;40.67
34297;BME280;20564;42.902;25.336;2023-04-23T10:53:04;97128.44;;;19.09;40.09
34297;BME280;20564;42.902;25.336;2023-04-23T10:55:31;97119.69;;;18.93;39.06
34297;BME280;20564;42.902;25.336;2023-04-23T10:58:05;97117.25;;;18.92;40.24
34297;BME280;20564;42.902;25.336;2023-04-23T11:00:53;97125.28;;;18.98;39.11
34297;BME280;20564;42.902;25.336;2023-04-23T11:07:08;97113.91;;;19.18;38.58
34297;BME280;20564;42.902;25.336;2023-04-23T11:09:46;97105.56;;;19.27;37.59
34297;BME280;20564;42.902;25.336;2023-04-23T11:14:54;97106.53;;;19.61;37.78
34297;BME280;20564;42.902;25.336;2023-04-23T11:17:22;97107.00;;;19.65;37.30
34297;BME280;20564;42.902;25.336;2023-04-23T11:20:09;97108.88;;;19.71;35.41
34297;BME280;20564;42.902;25.336;2023-04-23T11:22:44;97109.47;;;19.73;36.13
34297;BME280;20564;42.902;25.336;2023-04-23T11:25:12;97107.03;;;19.71;35.14
34297;BME280;20564;42.902;25.336;2023-04-23T11:27:43;97098.66;;;19.94;35.16
34297;BME280;20564;42.902;25.336;2023-04-23T11:30:15;97100.16;;;20.43;36.48
34297;BME280;20564;42.902;25.336;2023-04-23T11:32:47;97103.09;;;20.82;32.78
34297;BME280;20564;42.902;25.336;2023-04-23T11:35:17;97103.88;;;21.09;31.64
34297;BME280;20564;42.902;25.336;2023-04-23T11:37:45;97099.50;;;21.28;33.73
34297;BME280;20564;42.902;25.336;2023-04-23T11:40:15;97101.72;;;21.57;31.79
34297;BME280;20564;42.902;25.336;2023-04-23T11:42:50;97095.50;;;21.63;31.91
34297;BME280;20564;42.902;25.336;2023-04-23T11:45:20;97085.19;;;21.67;31.68
34297;BME280;20564;42.902;25.336;2023-04-23T11:47:50;97088.13;;;21.59;35.92
34297;BME280;20564;42.902;25.336;2023-04-23T11:50:29;97084.00;;;21.56;32.34
34297;BME280;20564;42.902;25.336;2023-04-23T11:53:07;97066.72;;;21.46;33.16
34297;BME280;20564;42.902;25.336;2023-04-23T11:55:41;97079.53;;;21.30;34.41
34297;BME280;20564;42.902;25.336;2023-04-23T11:58:17;97080.13;;;21.46;33.98
34297;BME280;20564;42.902;25.336;2023-04-23T12:00:58;97078.66;;;21.50;34.23
34297;BME280;20564;42.902;25.336;2023-04-23T12:03:30;97076.78;;;21.57;33.22
34297;BME280;20564;42.902;25.336;2023-04-23T12:06:16;97073.91;;;21.58;33.58
34297;BME280;20564;42.902;25.336;2023-04-23T12:09:14;97066.72;;;21.46;32.27
34297;BME280;20564;42.902;25.336;2023-04-23T12:11:57;97053.56;;;21.31;32.63
34297;BME280;20564;42.902;25.336;2023-04-23T12:14:28;97052.09;;;21.48;33.13
34297;BME280;20564;42.902;25.336;2023-04-23T12:16:57;97050.88;;;21.82;34.04
34297;BME280;20564;42.902;25.336;2023-04-23T12:19:29;97055.72;;;22.05;31.53
34297;BME280;20564;42.902;25.336;2023-04-23T12:22:00;97042.94;;;22.01;32.44
34297;BME280;20564;42.902;25.336;2023-04-23T12:24:45;97045.81;;;22.06;31.79
34297;BME280;20564;42.902;25.336;2023-04-23T12:27:14;97045.16;;;22.10;31.65
34297;BME280;20564;42.902;25.336;2023-04-23T12:29:42;97042.66;;;22.15;31.55
34297;BME280;20564;42.902;25.336;2023-04-23T12:32:11;97038.28;;;22.28;31.03
34297;BME280;20564;42.902;25.336;2023-04-23T12:35:12;97037.16;;;22.04;31.90
34297;BME280;20564;42.902;25.336;2023-04-23T12:37:39;97023.59;;;21.99;31.63
34297;BME280;20564;42.902;25.336;2023-04-23T12:40:09;97022.06;;;21.78;31.99
34297;BME280;20564;42.902;25.336;2023-04-23T12:42:36;97027.09;;;21.61;30.91
34297;BME280;20564;42.902;25.336;2023-04-23T12:45:13;97024.25;;;21.56;31.96
34297;BME280;20564;42.902;25.336;2023-04-23T12:47:40;97012.38;;;21.83;33.90
34297;BME280;20564;42.902;25.336;2023-04-23T12:50:27;97018.34;;;21.79;31.84
34297;BME280;20564;42.902;25.336;2023-04-23T12:52:56;97024.97;;;21.76;32.20
34297;BME280;20564;42.902;25.336;2023-04-23T12:55:25;97016.84;;;21.89;31.12
34297;BME280;20564;42.902;25.336;2023-04-23T12:58:07;97005.63;;;22.06;30.69
34297;BME280;20564;42.902;25.336;2023-04-23T13:03:46;97008.38;;;22.24;31.84
34297;BME280;20564;42.902;25.336;2023-04-23T13:06:15;97012.38;;;22.15;33.61
34297;BME280;20564;42.902;25.336;2023-04-23T13:08:42;97016.63;;;22.23;33.00